Bookmark and Share
Track history (hours):
 

Senyomaru

Last reported at 2014-Apr-23 21:33 UTC. Time now 2014-Apr-24 22:10 UTC.
Position N 35°03' E 138°32'.

Length 69 m; draft 4 m.

Type: Tanker. MMSI: 431300188.

NotesDate/timePositionNaut miles runAvg speedWind from/ knotsBaromVisibWave heightAir tempDewpointWater temp
2014-Apr-23 21:33N 35°03' E 138°32'35 3.2
2014-Apr-23 10:33N 34°47' E 139°10'1511.7
2014-Apr-23 09:17N 34°57' E 139°23'1212.1
2014-Apr-23 08:18N 35°04' E 139°35'911.9
2014-Apr-23 07:33N 35°09' E 139°44'1111.4
2014-Apr-23 06:34N 35°20' E 139°42'1110.7
2014-Apr-23 05:34N 35°30' E 139°47'2 1.5
2014-Apr-23 04:21N 35°32' E 139°45'0 0.0
2014-Apr-23 03:30N 35°32' E 139°45'0 0.0
2014-Apr-23 02:33N 35°32' E 139°45'0 0.2
2014-Apr-23 01:34N 35°32' E 139°46'4 3.6
2014-Apr-23 00:33N 35°29' E 139°49'0 0.0
2014-Apr-22 23:33N 35°29' E 139°49'0 0.0
2014-Apr-22 22:33N 35°29' E 139°49'0 0.0
2014-Apr-22 21:33N 35°29' E 139°49'0 0.0
2014-Apr-22 20:33N 35°29' E 139°49'0 0.0
2014-Apr-22 19:30N 35°29' E 139°49'0 0.1
2014-Apr-22 18:33N 35°29' E 139°49'0 0.0
2014-Apr-22 17:33N 35°29' E 139°49'0 0.0
2014-Apr-22 16:33N 35°29' E 139°49'0 0.0
2014-Apr-22 15:30N 35°29' E 139°49'0 0.0
2014-Apr-22 14:27N 35°29' E 139°49'0 0.0
2014-Apr-22 13:33N 35°29' E 139°49'0 0.1
2014-Apr-22 12:33N 35°29' E 139°49'0 0.0
2014-Apr-22 11:33N 35°29' E 139°49'0 0.0
2014-Apr-22 10:30N 35°29' E 139°49'0 0.0
2014-Apr-22 09:33N 35°29' E 139°49'0 0.0
2014-Apr-22 08:33N 35°29' E 139°49'0 0.0
2014-Apr-22 07:33N 35°29' E 139°49'0 0.0
2014-Apr-22 06:27N 35°29' E 139°49'0 0.0
2014-Apr-22 05:33N 35°29' E 139°49'0 0.0
2014-Apr-22 04:33N 35°29' E 139°49'0 0.5
2014-Apr-22 03:33N 35°29' E 139°48'6 6.0
2014-Apr-22 02:33N 35°24' E 139°44'0 0.0
2014-Apr-22 01:33N 35°24' E 139°44'0 0.0
2014-Apr-22 00:33N 35°24' E 139°44'0 0.0
2014-Apr-21 23:33N 35°24' E 139°44'0 0.0
2014-Apr-21 22:30N 35°24' E 139°44'0 0.0
2014-Apr-21 21:34N 35°24' E 139°44'0 0.1
2014-Apr-21 20:33N 35°24' E 139°44'0 0.0
2014-Apr-21 19:33N 35°24' E 139°44'0 0.0
2014-Apr-21 18:33N 35°24' E 139°44'0 0.0
2014-Apr-21 17:33N 35°24' E 139°44'0 0.0
2014-Apr-21 16:33N 35°24' E 139°44'0 0.0
2014-Apr-21 15:33N 35°24' E 139°44'0 0.0
2014-Apr-21 14:30N 35°24' E 139°44'0 0.0
2014-Apr-21 13:33N 35°24' E 139°44'0 0.1
2014-Apr-21 12:33N 35°24' E 139°44'0 0.0
2014-Apr-21 11:33N 35°24' E 139°44'0 0.0
2014-Apr-21 10:33N 35°24' E 139°44'0 0.0
2014-Apr-21 09:33N 35°24' E 139°44'0 0.0
2014-Apr-21 08:33N 35°24' E 139°44'0 0.0
2014-Apr-21 07:33N 35°24' E 139°44'0 0.0
2014-Apr-21 06:33N 35°24' E 139°44'0 0.0
2014-Apr-21 05:33N 35°24' E 139°44'0 0.0
2014-Apr-21 04:33N 35°24' E 139°44'0 0.0
2014-Apr-21 03:33N 35°24' E 139°44'0 0.1
2014-Apr-21 02:33N 35°24' E 139°44'0 0.0
2014-Apr-21 01:33N 35°24' E 139°44'0 0.0
2014-Apr-21 00:33N 35°24' E 139°44'0 0.1
2014-Apr-20 23:33N 35°24' E 139°44'0 0.1
2014-Apr-20 22:33N 35°24' E 139°44'0 0.1
2014-Apr-20 21:33N 35°24' E 139°44'0 0.1
2014-Apr-20 20:33N 35°24' E 139°44'0 0.1
2014-Apr-20 19:33N 35°24' E 139°44'0 0.0
2014-Apr-20 18:33N 35°24' E 139°44'0 0.1
2014-Apr-20 17:33N 35°24' E 139°44'0 0.0
2014-Apr-20 16:30N 35°24' E 139°44'0 0.0
2014-Apr-20 15:33N 35°24' E 139°44'0 0.0
2014-Apr-20 14:33N 35°24' E 139°44'0 0.0
2014-Apr-20 13:33N 35°24' E 139°44'0 0.0
2014-Apr-20 12:33N 35°24' E 139°44'0 0.1
2014-Apr-20 11:33N 35°24' E 139°44'0 0.0
2014-Apr-20 10:33N 35°24' E 139°44'0 0.0
2014-Apr-20 09:33N 35°24' E 139°44'0 0.0
2014-Apr-20 08:33N 35°24' E 139°44'0 0.0
2014-Apr-20 07:33N 35°24' E 139°44'0 0.0
2014-Apr-20 06:33N 35°24' E 139°44'0 0.1
2014-Apr-20 05:33N 35°24' E 139°44'0 0.0
2014-Apr-20 04:33N 35°24' E 139°44'0 0.0
2014-Apr-20 03:33N 35°24' E 139°44'0 0.0
2014-Apr-20 02:33N 35°24' E 139°44'0 0.0
2014-Apr-20 01:33N 35°24' E 139°44'0 0.0
2014-Apr-20 00:33N 35°24' E 139°44'0 0.0
2014-Apr-19 23:33N 35°24' E 139°44'0 0.0
2014-Apr-19 22:33N 35°24' E 139°44'0 0.0
2014-Apr-19 21:33N 35°24' E 139°44'0 0.0
2014-Apr-19 20:30N 35°24' E 139°44'0 0.1
2014-Apr-19 19:33N 35°24' E 139°44'0 0.0
2014-Apr-19 18:33N 35°24' E 139°44'0 0.0
2014-Apr-19 17:33N 35°24' E 139°44'0 0.0
2014-Apr-19 16:33N 35°24' E 139°44'0 0.0
2014-Apr-19 15:33N 35°24' E 139°44'0 0.0
2014-Apr-19 14:33N 35°24' E 139°44'0 0.0
2014-Apr-19 13:33N 35°24' E 139°44'0 0.0
2014-Apr-19 12:33N 35°24' E 139°44'0 0.0
2014-Apr-19 11:33N 35°24' E 139°44'0 0.0
2014-Apr-19 10:33N 35°24' E 139°44'0 0.0
2014-Apr-19 09:33N 35°24' E 139°44'0 0.0
2014-Apr-19 08:33N 35°24' E 139°44'0 0.0
2014-Apr-19 07:33N 35°24' E 139°44'0 0.0
2014-Apr-19 06:33N 35°24' E 139°44'0 0.0
2014-Apr-19 05:33N 35°24' E 139°44'0 0.0
2014-Apr-19 04:33N 35°24' E 139°44'0 0.0
2014-Apr-19 03:33N 35°24' E 139°44'0 0.0
2014-Apr-19 02:33N 35°24' E 139°44'0 0.0
2014-Apr-19 01:33N 35°24' E 139°44'0 0.0
2014-Apr-19 00:33N 35°24' E 139°44'0 0.0
2014-Apr-18 23:33N 35°24' E 139°44'0 0.0
2014-Apr-18 22:33N 35°24' E 139°44'0 0.0
2014-Apr-18 21:33N 35°24' E 139°44'0 0.0
2014-Apr-18 20:33N 35°24' E 139°44'0 0.0
2014-Apr-18 19:33N 35°24' E 139°44'0 0.0
2014-Apr-18 18:33N 35°24' E 139°44'0 0.1
2014-Apr-18 17:33N 35°24' E 139°44'0 0.0
2014-Apr-18 16:33N 35°24' E 139°44'0 0.0
2014-Apr-18 15:33N 35°24' E 139°44'0 0.0
2014-Apr-18 14:33N 35°24' E 139°44'0 0.0
2014-Apr-18 13:33N 35°24' E 139°44'0 0.0
2014-Apr-18 12:33N 35°24' E 139°44'0 0.0
2014-Apr-18 11:33N 35°24' E 139°44'0 0.0
2014-Apr-18 10:33N 35°24' E 139°44'0 0.0
2014-Apr-18 09:33N 35°24' E 139°44'0 0.0
2014-Apr-18 08:33N 35°24' E 139°44'0 0.0
2014-Apr-18 07:33N 35°24' E 139°44'0 0.1
2014-Apr-18 06:33N 35°24' E 139°44'0 0.0
2014-Apr-18 05:33N 35°24' E 139°44'0 0.0
2014-Apr-18 04:33N 35°24' E 139°44'0 0.0
2014-Apr-18 03:33N 35°24' E 139°44'0 0.0
2014-Apr-18 02:33N 35°24' E 139°44'0 0.0
2014-Apr-18 01:33N 35°24' E 139°44'0 0.0
2014-Apr-18 00:33N 35°24' E 139°44'0 0.0
2014-Apr-17 23:30N 35°24' E 139°44'0 0.0
2014-Apr-17 22:33N 35°24' E 139°44'0 0.0
2014-Apr-17 21:33N 35°24' E 139°44'0 0.1
2014-Apr-17 20:33N 35°24' E 139°44'0 0.1
2014-Apr-17 19:30N 35°24' E 139°44'0 0.0
2014-Apr-17 18:33N 35°24' E 139°44'0 0.0
2014-Apr-17 17:33N 35°24' E 139°44'0 0.0
2014-Apr-17 16:33N 35°24' E 139°44'0 0.0
2014-Apr-17 15:33N 35°24' E 139°44'0 0.0
2014-Apr-17 14:33N 35°24' E 139°44'0 0.0
2014-Apr-17 13:33N 35°24' E 139°44'0 0.0
2014-Apr-17 12:33N 35°24' E 139°44'0 0.0
2014-Apr-17 11:33N 35°24' E 139°44'0 0.1
2014-Apr-17 10:33N 35°24' E 139°44'0 0.0
2014-Apr-17 09:33N 35°24' E 139°44'0 0.0
2014-Apr-17 08:33N 35°24' E 139°44'0 0.0
2014-Apr-17 07:30N 35°24' E 139°44'0 0.0
2014-Apr-17 06:33N 35°24' E 139°44'0 0.0
2014-Apr-17 05:33N 35°24' E 139°44'0 0.1
2014-Apr-17 04:33N 35°24' E 139°44'0 0.1
2014-Apr-17 03:33N 35°24' E 139°44'5 5.5
2014-Apr-17 02:33N 35°18' E 139°44'1010.3
2014-Apr-17 01:34N 35°08' E 139°45'1211.5
2014-Apr-17 00:33N 35°00' E 139°35'23010.0
2014-Apr-16 01:28N 34°10' E 135°02'1111.9
2014-Apr-16 00:33N 34°20' E 135°05'1211.9
2014-Apr-15 23:33N 34°29' E 135°16'5 3.8
2014-Apr-15 22:16N 34°32' E 135°20'0 0.0
2014-Apr-15 21:28N 34°32' E 135°20'0 0.0
2014-Apr-15 20:28N 34°32' E 135°20'  

Dump ship's entire track history

sailing weather and tide predictions

Senyomaru — JI3557 — position and weather